CheckWX is a tool to help pilots better visualize weather data.  It is not intended as a substitute for an official pre-flight weather briefing.

07:10:49 UTC

VDPP TAF
Phnom Penh International Airport
Phnom Penh, Cambodia
TAF VDPP 200500Z 2006/2024 27006KT 9999 SCT017 TEMPO 2007/2012 27015G28KT 5000 TSRA SCT015 FEW017CB SCT040

Jun-20@
06:00 UTC

Jun-20 @ 06:00 UTC

Jun-21@
00:00 UTC

Jun-21 @ 00:00 UTC

TAF VDPP 200500Z 2006/2024 27006KT 9999 SCT017
Wind
  • 270° at 6 KTS
Cloud Levels
  • Scattered at 1,700' AGL

Jun-20@
07:00 UTC

Jun-20 @ 07:00 UTC

Jun-20@
12:00 UTC

Jun-20 @ 12:00 UTC

TEMPO 2007/2012 27015G28KT 5000 TSRA SCT015 FEW017CB SCT040

Temporary

Temporary Changes expected for less than half the time period

Wind
  • 270° at 15 KTS
  • {Gusting to 28 KTS
Conditions
Thunderstorm, Rain
Cloud Levels
  • Scattered at 1,500' AGL
  • Few at 1,700' AGL
  • Scattered at 4,000' AGL